Time;durP1;ratioP1;P1;durP2;ratioP2;P2;SDS_P1;SDS_P2;PMS_P1;PMS_P2;Temp;Humidity;BMP_temperature;BMP_pressure;BME280_temperature;BME280_humidity;BME280_pressure;Samples;Min_cycle;Max_cycle;Signal;HPM_P1;HPM_P2
2023/04/13 00:02:18;;;;;;;;;;;;;;;5.88;100.00;99460.50;5052056;28;20002;-45
2023/04/13 00:04:43;;;;;;;;;;;;;;;5.79;100.00;99456.03;5051809;28;20367;-45
2023/04/13 00:07:15;;;;;;;;;;;;;;;5.81;100.00;99456.06;5052708;28;19963;-45
2023/04/13 00:09:41;;;;;;;;;;;;;;;5.87;100.00;99449.44;5052808;28;19924;-47
2023/04/13 00:12:06;;;;;;;;;;;;;;;5.74;100.00;99457.63;5053452;28;19958;-46
2023/04/13 00:14:34;;;;;;;;;;;;;;;5.70;100.00;99437.94;5052927;28;20003;-46
2023/04/13 00:17:01;;;;;;;;;;;;;;;5.71;100.00;99451.59;5052495;28;20438;-45
2023/04/13 00:19:27;;;;;;;;;;;;;;;5.71;100.00;99443.94;5050413;28;20473;-45
2023/04/13 00:21:53;;;;;;;;;;;;;;;5.80;100.00;99439.03;5051914;28;19921;-46
2023/04/13 00:36:30;;;;;;;;;;;;;;;5.85;100.00;99440.88;5046732;28;19966;-46
2023/04/13 00:38:57;;;;;;;;;;;;;;;5.97;100.00;99444.59;5048827;28;19928;-46
2023/04/13 00:41:23;;;;;;;;;;;;;;;5.98;100.00;99446.31;5051860;28;19952;-46
2023/04/13 00:43:48;;;;;;;;;;;;;;;5.96;100.00;99437.78;5056561;28;20030;-46
2023/04/13 00:46:15;;;;;;;;;;;;;;;5.87;100.00;99439.22;5053143;28;19948;-47
2023/04/13 00:48:40;;;;;;;;;;;;;;;5.86;100.00;99439.19;5051768;28;19917;-46
2023/04/13 00:51:06;;;;;;;;;;;;;;;5.86;100.00;99439.19;5050386;28;19971;-48
2023/04/13 00:53:32;;;;;;;;;;;;;;;5.94;100.00;99430.06;5054040;28;20442;-45
2023/04/13 00:55:58;;;;;;;;;;;;;;;6.02;100.00;99437.91;5055253;28;19916;-48
2023/04/13 00:58:24;;;;;;;;;;;;;;;5.96;100.00;99443.75;5053600;28;19955;-46
2023/04/13 01:00:50;;;;;;;;;;;;;;;5.93;100.00;99435.13;5053840;28;19944;-50
2023/04/13 01:03:15;;;;;;;;;;;;;;;5.92;100.00;99434.28;5051735;28;20363;-51
2023/04/13 01:05:49;;;;;;;;;;;;;;;5.96;100.00;99433.53;5054300;28;19920;-49
2023/04/13 01:08:21;;;;;;;;;;;;;;;6.01;100.00;99429.41;5057146;28;19949;-51
2023/04/13 01:11:17;;;;;;;;;;;;;;;5.99;100.00;99435.28;5050500;28;19913;-50
2023/04/13 01:13:46;;;;;;;;;;;;;;;6.06;100.00;99430.34;5036316;28;20272;-52
2023/04/13 01:16:23;;;;;;;;;;;;;;;6.10;100.00;99431.28;5062389;28;19978;-50
2023/04/13 01:18:51;;;;;;;;;;;;;;;6.08;100.00;99432.97;5060001;28;19946;-51
2023/04/13 01:21:18;;;;;;;;;;;;;;;6.21;100.00;99429.84;5062916;28;19942;-51
2023/04/13 01:24:02;;;;;;;;;;;;;;;6.05;100.00;99438.84;5059463;28;20664;-53
2023/04/13 01:26:32;;;;;;;;;;;;;;;6.02;100.00;99425.16;5047030;28;19972;-49
2023/04/13 01:28:57;;;;;;;;;;;;;;;6.07;100.00;99431.22;5063815;28;19960;-53
2023/04/13 01:31:23;;;;;;;;;;;;;;;6.05;100.00;99431.19;5058714;28;19955;-51
2023/04/13 01:33:48;;;;;;;;;;;;;;;6.08;100.00;99449.13;5056243;28;19921;-51
2023/04/13 01:36:14;;;;;;;;;;;;;;;6.13;100.00;99429.69;5060720;28;19920;-47
2023/04/13 01:38:39;;;;;;;;;;;;;;;6.06;100.00;99442.25;5056054;28;19912;-51
2023/04/13 01:41:05;;;;;;;;;;;;;;;6.01;100.00;99448.97;5057813;28;19925;-48
2023/04/13 01:43:31;;;;;;;;;;;;;;;6.06;100.00;99452.44;5059884;28;19927;-52
2023/04/13 01:45:59;;;;;;;;;;;;;;;6.04;100.00;99470.28;5060997;28;19939;-49
2023/04/13 01:48:32;;;;;;;;;;;;;;;5.99;100.00;99481.22;5057491;28;19920;-50
2023/04/13 01:51:02;;;;;;;;;;;;;;;6.04;100.00;99480.50;5053887;28;19951;-50
2023/04/13 01:53:29;;;;;;;;;;;;;;;5.97;100.00;99483.72;5053640;28;19923;-49
2023/04/13 01:55:55;;;;;;;;;;;;;;;5.96;100.00;99491.34;5053810;28;19912;-51
2023/04/13 01:58:22;;;;;;;;;;;;;;;5.99;100.00;99486.31;5057107;28;20003;-53
2023/04/13 02:00:47;;;;;;;;;;;;;;;6.10;100.00;99492.53;5057934;28;19932;-50
2023/04/13 02:03:14;;;;;;;;;;;;;;;5.98;100.00;99490.56;5055815;28;19916;-50
2023/04/13 02:05:39;;;;;;;;;;;;;;;5.98;100.00;99499.91;5053251;28;19983;-51
2023/04/13 02:08:05;;;;;;;;;;;;;;;5.88;100.00;99498.75;5052883;28;19920;-54
2023/04/13 02:10:32;;;;;;;;;;;;;;;5.87;100.00;99505.56;5052196;28;19955;-55
2023/04/13 02:12:58;;;;;;;;;;;;;;;5.90;100.00;99503.09;5056116;28;20372;-54
2023/04/13 02:15:23;;;;;;;;;;;;;;;5.88;100.00;99509.84;5054208;28;19917;-52
2023/04/13 02:17:49;;;;;;;;;;;;;;;5.93;100.00;99504.88;5055523;28;20311;-54
2023/04/13 02:20:14;;;;;;;;;;;;;;;5.84;100.00;99515.69;5054472;28;19925;-54
2023/04/13 02:22:40;;;;;;;;;;;;;;;5.86;100.00;99519.13;5057701;28;19917;-55
2023/04/13 02:25:07;;;;;;;;;;;;;;;5.90;100.00;99518.41;5055945;28;19970;-57
2023/04/13 02:27:34;;;;;;;;;;;;;;;5.89;100.00;99519.22;5055859;28;19917;-55
2023/04/13 02:30:00;;;;;;;;;;;;;;;5.90;100.00;99535.41;5051327;28;20395;-55
2023/04/13 02:32:25;;;;;;;;;;;;;;;5.95;100.00;99540.66;5053054;28;19916;-55
2023/04/13 02:34:52;;;;;;;;;;;;;;;5.93;100.00;99549.94;5059821;28;19919;-54
2023/04/13 02:37:17;;;;;;;;;;;;;;;5.93;100.00;99550.81;5052960;28;20371;-53
2023/04/13 02:39:42;;;;;;;;;;;;;;;6.03;100.00;99564.66;5053181;28;19955;-55
2023/04/13 02:42:09;;;;;;;;;;;;;;;5.94;100.00;99575.47;5049970;28;19977;-54
2023/04/13 02:44:34;;;;;;;;;;;;;;;6.01;100.00;99566.34;5053035;28;19924;-55
2023/04/13 02:47:00;;;;;;;;;;;;;;;6.02;100.00;99583.38;5054104;28;20004;-56
2023/04/13 02:49:25;;;;;;;;;;;;;;;6.04;100.00;99584.25;5059008;28;19916;-55
2023/04/13 02:51:51;;;;;;;;;;;;;;;5.99;100.00;99581.56;5055703;28;19916;-55
2023/04/13 02:54:16;;;;;;;;;;;;;;;5.96;100.00;99576.41;5056237;28;20024;-57
2023/04/13 02:56:43;;;;;;;;;;;;;;;5.91;100.00;99576.28;5058015;28;20062;-56
2023/04/13 02:59:08;;;;;;;;;;;;;;;5.82;100.00;99586.19;5054074;28;20046;-54
2023/04/13 03:01:34;;;;;;;;;;;;;;;5.78;100.00;99581.84;5053659;28;20003;-55
2023/04/13 03:03:59;;;;;;;;;;;;;;;5.75;100.00;99586.88;5054395;28;20518;-56
2023/04/13 03:06:24;;;;;;;;;;;;;;;5.72;100.00;99589.34;5053965;28;19921;-57
2023/04/13 03:08:50;;;;;;;;;;;;;;;5.70;100.00;99590.09;5052674;28;20291;-55
2023/04/13 03:11:16;;;;;;;;;;;;;;;5.70;100.00;99590.97;5051838;28;19928;-56
2023/04/13 03:13:41;;;;;;;;;;;;;;;5.65;100.00;99605.31;5051595;28;19927;-56
2023/04/13 03:16:10;;;;;;;;;;;;;;;5.61;100.00;99603.50;5054730;28;19925;-56
2023/04/13 03:18:36;;;;;;;;;;;;;;;5.59;100.00;99613.66;5056678;28;19959;-56
2023/04/13 03:21:01;;;;;;;;;;;;;;;5.59;100.00;99615.34;5054459;28;19937;-56
2023/04/13 03:23:26;;;;;;;;;;;;;;;5.58;100.00;99614.47;5052155;28;20382;-56
2023/04/13 03:25:52;;;;;;;;;;;;;;;5.60;100.00;99629.81;5053735;28;19979;-56
2023/04/13 03:28:18;;;;;;;;;;;;;;;5.57;100.00;99622.91;5054239;28;19990;-56
2023/04/13 03:30:43;;;;;;;;;;;;;;;5.57;100.00;99634.81;5050669;28;20355;-56
2023/04/13 03:33:09;;;;;;;;;;;;;;;5.55;100.00;99644.97;5050214;28;19909;-57
2023/04/13 03:35:34;;;;;;;;;;;;;;;5.55;100.00;99642.44;5059465;28;19917;-55
2023/04/13 03:37:59;;;;;;;;;;;;;;;5.51;100.00;99644.84;5038933;28;20286;-56
2023/04/13 03:40:24;;;;;;;;;;;;;;;5.50;100.00;99645.66;5054204;28;19920;-56
2023/04/13 03:42:50;;;;;;;;;;;;;;;5.46;100.00;99651.47;5054547;28;19924;-57
2023/04/13 03:45:16;;;;;;;;;;;;;;;5.39;100.00;99658.09;5050315;28;20398;-57
2023/04/13 03:47:42;;;;;;;;;;;;;;;5.33;100.00;99655.38;5063166;28;19938;-56
2023/04/13 03:50:08;;;;;;;;;;;;;;;5.24;100.00;99670.41;5058842;28;19916;-55
2023/04/13 03:52:33;;;;;;;;;;;;;;;5.18;100.00;99668.53;5049767;28;19923;-56
2023/04/13 03:54:59;;;;;;;;;;;;;;;5.16;100.00;99675.28;5053459;28;20405;-56
2023/04/13 03:57:24;;;;;;;;;;;;;;;5.16;100.00;99672.72;5056136;28;20375;-56
2023/04/13 03:59:49;;;;;;;;;;;;;;;5.14;100.00;99676.88;5049010;28;20432;-56
2023/04/13 04:02:15;;;;;;;;;;;;;;;5.13;100.00;99680.25;5053881;28;19923;-57
2023/04/13 04:04:40;;;;;;;;;;;;;;;5.11;100.00;99676.81;5057199;28;20321;-56
2023/04/13 04:07:05;;;;;;;;;;;;;;;5.13;100.00;99675.16;5058200;28;19912;-57
2023/04/13 04:09:30;;;;;;;;;;;;;;;5.18;100.00;99680.41;5052800;28;19916;-56
2023/04/13 04:11:56;;;;;;;;;;;;;;;5.25;100.00;99690.81;5056542;28;19920;-57
2023/04/13 04:14:21;;;;;;;;;;;;;;;5.21;100.00;99691.53;5057115;28;19923;-56
2023/04/13 04:16:47;;;;;;;;;;;;;;;5.21;100.00;99700.88;5051956;28;19917;-57
2023/04/13 04:19:12;;;;;;;;;;;;;;;5.27;100.00;99706.16;5054796;28;19920;-57
2023/04/13 04:21:37;;;;;;;;;;;;;;;5.27;100.00;99717.22;5052170;28;20015;-54
2023/04/13 04:24:05;;;;;;;;;;;;;;;5.30;100.00;99711.34;5052836;28;19943;-56
2023/04/13 04:26:31;;;;;;;;;;;;;;;5.32;100.00;99713.13;5059377;28;19892;-55
2023/04/13 04:29:02;;;;;;;;;;;;;;;5.43;100.00;99710.91;5059146;28;20016;-56
2023/04/13 04:31:32;;;;;;;;;;;;;;;5.47;100.00;99724.63;5055568;28;19935;-53
2023/04/13 04:33:57;;;;;;;;;;;;;;;5.41;100.00;99727.84;5053632;28;20050;-54
2023/04/13 04:36:23;;;;;;;;;;;;;;;5.40;100.00;99728.69;5061959;28;19987;-54
2023/04/13 04:38:56;;;;;;;;;;;;;;;5.38;100.00;99732.84;5059880;28;20392;-54
2023/04/13 04:41:22;;;;;;;;;;;;;;;5.41;100.00;99730.41;5063480;28;19923;-55
2023/04/13 04:43:48;;;;;;;;;;;;;;;5.34;100.00;99733.59;5059418;28;19928;-54
2023/04/13 04:46:14;;;;;;;;;;;;;;;5.31;100.00;99748.78;5055628;28;20542;-57
2023/04/13 04:48:40;;;;;;;;;;;;;;;5.28;100.00;99749.56;5053657;28;19995;-57
2023/04/13 04:51:07;;;;;;;;;;;;;;;5.27;100.00;99758.00;5061102;28;20359;-55
2023/04/13 04:53:32;;;;;;;;;;;;;;;5.24;100.00;99751.94;5057966;28;20290;-56
2023/04/13 04:55:58;;;;;;;;;;;;;;;5.21;100.00;99756.94;5055824;28;19913;-57
2023/04/13 04:58:23;;;;;;;;;;;;;;;5.18;100.00;99751.75;5063053;28;19916;-56
2023/04/13 05:00:48;;;;;;;;;;;;;;;5.20;100.00;99756.06;5053520;28;19912;-47
2023/04/13 05:03:14;;;;;;;;;;;;;;;5.20;100.00;99766.25;5057056;28;19928;-47
2023/04/13 05:05:40;;;;;;;;;;;;;;;5.22;100.00;99763.78;5054354;28;19927;-46
2023/04/13 05:08:05;;;;;;;;;;;;;;;5.31;100.00;99770.03;5050128;28;19921;-50
2023/04/13 05:10:30;;;;;;;;;;;;;;;5.37;100.00;99770.22;5058043;28;19976;-46
2023/04/13 05:12:55;;;;;;;;;;;;;;;5.42;100.00;99764.41;5056306;28;19917;-47
2023/04/13 05:15:21;;;;;;;;;;;;;;;5.43;100.00;99768.69;5053564;28;20371;-47
2023/04/13 05:17:49;;;;;;;;;;;;;;;5.50;100.00;99766.34;5054747;28;20527;-48
2023/04/13 05:20:14;;;;;;;;;;;;;;;5.59;100.00;99770.91;5050410;28;19955;-48
2023/04/13 05:22:41;;;;;;;;;;;;;;;5.80;100.00;99778.31;5050549;28;20383;-46
2023/04/13 05:25:06;;;;;;;;;;;;;;;5.82;100.00;99780.06;5053828;28;19925;-48
2023/04/13 05:27:32;;;;;;;;;;;;;;;5.79;100.00;99787.66;5036979;28;20039;-47
2023/04/13 05:29:57;;;;;;;;;;;;;;;5.80;100.00;99789.38;5037966;28;19972;-50
2023/04/13 05:32:23;;;;;;;;;;;;;;;5.74;100.00;99794.28;5054358;28;19924;-46
2023/04/13 05:34:48;;;;;;;;;;;;;;;5.75;100.00;99793.47;5055087;28;20498;-48
2023/04/13 05:37:14;;;;;;;;;;;;;;;5.91;100.00;99795.69;5052264;28;19915;-48
2023/04/13 05:39:39;;;;;;;;;;;;;;;5.95;100.00;99800.91;5055969;28;19920;-52
2023/04/13 05:42:05;;;;;;;;;;;;;;;6.07;100.00;99799.56;5060142;28;19924;-48
2023/04/13 05:44:30;;;;;;;;;;;;;;;6.10;100.00;99807.31;5057792;28;19928;-48
2023/04/13 05:46:56;;;;;;;;;;;;;;;6.06;100.00;99802.94;5056267;28;19930;-48
2023/04/13 05:49:21;;;;;;;;;;;;;;;6.10;100.00;99809.84;5056272;28;20696;-49
2023/04/13 05:51:47;;;;;;;;;;;;;;;6.15;100.00;99815.97;5054076;28;19932;-50
2023/04/13 05:54:12;;;;;;;;;;;;;;;6.09;100.00;99823.44;5052312;28;20381;-47
2023/04/13 05:56:38;;;;;;;;;;;;;;;6.25;100.00;99834.09;5054894;28;19957;-48
2023/04/13 05:59:03;;;;;;;;;;;;;;;6.26;100.00;99823.94;5055015;28;20012;-50
2023/04/13 06:01:32;;;;;;;;;;;;;;;6.29;100.00;99824.00;5052876;28;20054;-49
2023/04/13 06:03:57;;;;;;;;;;;;;;;6.31;100.00;99836.81;5053378;28;19932;-47
2023/04/13 06:06:23;;;;;;;;;;;;;;;6.24;100.00;99840.03;5054929;28;19924;-47
2023/04/13 06:08:49;;;;;;;;;;;;;;;6.17;100.00;99844.94;5057650;28;19916;-50
2023/04/13 06:11:14;;;;;;;;;;;;;;;6.14;100.00;99855.09;5053894;28;20008;-49
2023/04/13 06:13:40;;;;;;;;;;;;;;;6.12;100.00;99866.91;5053630;28;19924;-48
2023/04/13 06:16:06;;;;;;;;;;;;;;;6.12;100.00;99858.38;5054152;28;19924;-50
2023/04/13 06:18:31;;;;;;;;;;;;;;;6.08;100.00;99867.66;5056130;28;20384;-49
2023/04/13 06:20:58;;;;;;;;;;;;;;;6.09;100.00;99881.28;5056287;28;20027;-47
2023/04/13 06:23:23;;;;;;;;;;;;;;;6.10;100.00;99867.69;5055210;28;20019;-50
2023/04/13 06:25:49;;;;;;;;;;;;;;;6.11;100.00;99875.38;5057325;28;20043;-50
2023/04/13 06:28:14;;;;;;;;;;;;;;;6.16;100.00;99888.31;5051345;28;19913;-50
2023/04/13 06:30:39;;;;;;;;;;;;;;;6.23;100.00;99897.00;5054742;28;19924;-49
2023/04/13 06:33:05;;;;;;;;;;;;;;;6.27;100.00;99892.03;5053820;28;19912;-50
2023/04/13 06:35:32;;;;;;;;;;;;;;;6.23;100.00;99892.75;5039226;28;19917;-46
2023/04/13 06:37:58;;;;;;;;;;;;;;;6.17;100.00;99890.03;5054374;28;20790;-49
2023/04/13 06:40:24;;;;;;;;;;;;;;;6.14;100.00;99895.91;5054695;28;20538;-48
2023/04/13 06:42:50;;;;;;;;;;;;;;;6.12;100.00;99897.53;5054933;28;20366;-50
2023/04/13 06:45:15;;;;;;;;;;;;;;;6.12;100.00;99906.88;5053749;28;19916;-47
2023/04/13 06:47:41;;;;;;;;;;;;;;;6.11;100.00;99905.16;5049616;28;19928;-49
2023/04/13 06:50:07;;;;;;;;;;;;;;;6.15;100.00;99912.09;5053832;28;19925;-47
2023/04/13 06:52:33;;;;;;;;;;;;;;;6.13;100.00;99908.66;5052156;28;19921;-50
2023/04/13 06:54:58;;;;;;;;;;;;;;;6.17;100.00;99915.56;5049664;28;20007;-49
2023/04/13 06:57:23;;;;;;;;;;;;;;;6.20;100.00;99908.00;5053489;28;20011;-48
2023/04/13 06:59:49;;;;;;;;;;;;;;;6.23;100.00;99914.88;5054120;28;19962;-47
2023/04/13 07:02:14;;;;;;;;;;;;;;;6.27;100.00;99925.22;5052942;28;19925;-47
2023/04/13 07:04:39;;;;;;;;;;;;;;;6.31;100.00;99923.63;5054315;28;19924;-48
2023/04/13 07:07:05;;;;;;;;;;;;;;;6.39;100.00;99928.16;5051950;28;19959;-48
2023/04/13 07:09:31;;;;;;;;;;;;;;;6.40;100.00;99935.00;5052358;28;19993;-48
2023/04/13 07:11:56;;;;;;;;;;;;;;;6.36;100.00;99948.47;5054898;28;20435;-48
2023/04/13 07:14:22;;;;;;;;;;;;;;;6.39;100.00;99937.50;5053311;28;19958;-45
2023/04/13 07:16:47;;;;;;;;;;;;;;;6.45;100.00;99955.56;5051142;28;19940;-48
2023/04/13 07:19:12;;;;;;;;;;;;;;;6.51;100.00;99952.31;5052456;28;19921;-50
2023/04/13 07:21:38;;;;;;;;;;;;;;;6.68;100.00;99961.34;5051277;28;19921;-49
2023/04/13 07:24:03;;;;;;;;;;;;;;;6.62;100.00;99961.19;5051179;28;20402;-48
2023/04/13 07:26:29;;;;;;;;;;;;;;;6.76;100.00;99972.66;5055386;28;19989;-48
2023/04/13 07:28:54;;;;;;;;;;;;;;;6.78;100.00;99965.88;5048713;28;20490;-46
2023/04/13 07:31:20;;;;;;;;;;;;;;;6.91;100.00;99972.22;5056227;28;19916;-49
2023/04/13 07:33:45;;;;;;;;;;;;;;;6.96;100.00;99979.19;5057585;28;20007;-48
2023/04/13 07:36:11;;;;;;;;;;;;;;;7.06;100.00;99977.78;5056558;28;20011;-46
2023/04/13 07:38:36;;;;;;;;;;;;;;;7.16;100.00;99982.31;5054675;28;19931;-46
2023/04/13 07:41:02;;;;;;;;;;;;;;;7.24;100.00;99978.28;5054592;28;20461;-46
2023/04/13 07:43:27;;;;;;;;;;;;;;;7.23;100.00;99993.59;5053043;28;19942;-47
2023/04/13 07:45:52;;;;;;;;;;;;;;;7.32;100.00;100001.50;5054345;28;19963;-50
2023/04/13 07:48:17;;;;;;;;;;;;;;;7.34;100.00;100001.53;5051731;28;19924;-49
2023/04/13 07:50:43;;;;;;;;;;;;;;;7.42;100.00;100016.28;5057702;28;20367;-46
2023/04/13 07:53:08;;;;;;;;;;;;;;;7.46;100.00;100007.88;5052951;28;20091;-49
2023/04/13 07:55:35;;;;;;;;;;;;;;;7.57;100.00;100027.72;5050217;28;19913;-47
2023/04/13 07:58:00;;;;;;;;;;;;;;;7.58;100.00;100017.53;5043890;28;19942;-50
2023/04/13 08:00:25;;;;;;;;;;;;;;;7.65;100.00;100021.16;5045959;28;20039;-49
2023/04/13 08:02:52;;;;;;;;;;;;;;;7.64;100.00;100020.25;5047031;28;19956;-47
2023/04/13 08:05:18;;;;;;;;;;;;;;;7.77;100.00;100018.91;5049387;28;20036;-47
2023/04/13 08:07:45;;;;;;;;;;;;;;;7.80;100.00;100024.94;5051381;28;20027;-47
2023/04/13 08:10:10;;;;;;;;;;;;;;;7.90;100.00;100040.56;5048633;28;20016;-47
2023/04/13 08:12:36;;;;;;;;;;;;;;;7.99;100.00;100041.63;5047611;28;20012;-46
2023/04/13 08:15:01;;;;;;;;;;;;;;;8.20;100.00;100050.69;5047872;28;20401;-46
2023/04/13 08:17:26;;;;;;;;;;;;;;;8.25;100.00;100043.97;5054947;28;19966;-54
2023/04/13 08:19:51;;;;;;;;;;;;;;;8.24;100.00;100057.59;5052165;28;20367;-53
2023/04/13 08:22:17;;;;;;;;;;;;;;;8.23;100.00;100067.00;5057591;28;19917;-54
2023/04/13 08:24:42;;;;;;;;;;;;;;;8.27;100.00;100067.94;5050076;28;19924;-52
2023/04/13 08:27:08;;;;;;;;;;;;;;;8.32;100.00;100068.94;5055140;28;19940;-52
2023/04/13 08:29:34;;;;;;;;;;;;;;;8.28;100.00;100067.97;5033012;28;20015;-54
2023/04/13 08:32:00;;;;;;;;;;;;;;;8.33;100.00;100068.09;5054348;28;19923;-54
2023/04/13 08:34:26;;;;;;;;;;;;;;;8.25;99.23;100082.38;5055982;28;19924;-55
2023/04/13 08:36:51;;;;;;;;;;;;;;;8.32;100.00;100081.72;5057853;28;19919;-55
2023/04/13 08:39:16;;;;;;;;;;;;;;;8.39;99.47;100083.66;5052886;28;19917;-55
2023/04/13 08:41:46;;;;;;;;;;;;;;;8.43;100.00;100098.25;5050147;28;20411;-56
2023/04/13 08:44:12;;;;;;;;;;;;;;;8.54;97.50;100108.75;5049714;28;19919;-55
2023/04/13 08:46:38;;;;;;;;;;;;;;;8.54;98.83;100096.81;5055048;28;19973;-54
2023/04/13 08:49:06;;;;;;;;;;;;;;;8.69;97.58;100100.59;5052153;28;19962;-55
2023/04/13 08:51:32;;;;;;;;;;;;;;;8.88;98.57;100105.28;5047035;28;20491;-55
2023/04/13 08:53:57;;;;;;;;;;;;;;;9.00;93.49;100117.53;5059067;28;19917;-55
2023/04/13 08:56:23;;;;;;;;;;;;;;;9.05;95.12;100114.25;5036169;28;20014;-54
2023/04/13 08:58:51;;;;;;;;;;;;;;;9.19;92.75;100117.09;5056724;28;19939;-53
2023/04/13 09:01:17;;;;;;;;;;;;;;;9.29;91.51;100125.88;5056932;28;19908;-50
2023/04/13 09:03:54;;;;;;;;;;;;;;;9.41;93.14;100121.00;5051952;28;19931;-54
2023/04/13 09:06:31;;;;;;;;;;;;;;;9.57;91.46;100146.13;5053069;28;19912;-55
2023/04/13 09:08:57;;;;;;;;;;;;;;;9.74;90.13;100132.75;5054323;28;19908;-54
2023/04/13 09:11:24;;;;;;;;;;;;;;;9.81;92.36;100142.31;5057041;28;19921;-54
2023/04/13 09:13:50;;;;;;;;;;;;;;;9.90;91.73;100145.94;5052942;28;19970;-55
2023/04/13 09:16:16;;;;;;;;;;;;;;;10.07;90.11;100159.09;5061182;28;19920;-55
2023/04/13 09:18:52;;;;;;;;;;;;;;;10.07;90.66;100147.94;5062180;28;19920;-55
2023/04/13 09:21:18;;;;;;;;;;;;;;;10.08;88.69;100160.84;5060538;28;19923;-55
2023/04/13 09:23:53;;;;;;;;;;;;;;;10.03;86.56;100159.88;5059474;28;19917;-55
2023/04/13 09:26:19;;;;;;;;;;;;;;;9.99;85.75;100160.66;5053848;28;20599;-56
2023/04/13 09:28:48;;;;;;;;;;;;;;;9.92;86.96;100163.94;5059499;28;19978;-55
2023/04/13 09:31:14;;;;;;;;;;;;;;;9.92;84.15;100169.06;5060261;28;19916;-54
2023/04/13 09:33:44;;;;;;;;;;;;;;;9.78;85.95;100171.38;5059421;28;19916;-54
2023/04/13 09:36:11;;;;;;;;;;;;;;;9.79;86.69;100187.66;5061064;28;20746;-54
2023/04/13 09:38:36;;;;;;;;;;;;;;;9.74;86.99;100178.97;5058755;28;20003;-53
2023/04/13 09:41:01;;;;;;;;;;;;;;;9.74;85.85;100194.38;5058522;28;20011;-56
2023/04/13 09:43:33;;;;;;;;;;;;;;;9.71;83.29;100204.56;5047278;28;19931;-55
2023/04/13 09:45:59;;;;;;;;;;;;;;;9.84;83.52;100206.59;5059937;28;19961;-56
2023/04/13 09:48:24;;;;;;;;;;;;;;;9.86;83.78;100208.34;5057063;28;19916;-55
2023/04/13 09:51:05;;;;;;;;;;;;;;;9.99;81.50;100203.44;5058313;28;19920;-55
2023/04/13 09:53:41;;;;;;;;;;;;;;;10.17;81.67;100209.81;5058889;28;19908;-55
2023/04/13 09:56:07;;;;;;;;;;;;;;;10.11;83.68;100217.41;5057341;28;20287;-56
2023/04/13 09:58:36;;;;;;;;;;;;;;;9.98;81.19;100222.25;5055290;28;19912;-55
2023/04/13 10:01:01;;;;;;;;;;;;;;;9.98;81.04;100240.25;5059782;28;19912;-56
2023/04/13 10:03:27;;;;;;;;;;;;;;;9.82;82.78;100245.03;5054871;28;19989;-54
2023/04/13 10:05:53;;;;;;;;;;;;;;;9.62;84.96;100248.91;5056516;28;20397;-53
2023/04/13 10:08:18;;;;;;;;;;;;;;;9.47;87.41;100259.69;5054826;28;20465;-53
2023/04/13 10:10:44;;;;;;;;;;;;;;;9.39;86.22;100250.94;5055831;28;20031;-52
2023/04/13 10:13:20;;;;;;;;;;;;;;;9.33;88.59;100267.06;5054418;28;20294;-50
2023/04/13 10:15:45;;;;;;;;;;;;;;;9.47;88.59;100258.84;5063475;28;19915;-51
2023/04/13 10:18:11;;;;;;;;;;;;;;;9.50;84.38;100271.72;5059056;28;19909;-54
2023/04/13 10:20:36;;;;;;;;;;;;;;;9.54;84.21;100274.41;5056288;28;20434;-53
2023/04/13 10:23:03;;;;;;;;;;;;;;;9.50;85.78;100274.28;5056492;28;19919;-53
2023/04/13 10:25:28;;;;;;;;;;;;;;;9.64;85.06;100286.59;5054704;28;19913;-54
2023/04/13 10:27:57;;;;;;;;;;;;;;;9.85;83.68;100285.34;5059487;28;19916;-54
2023/04/13 10:30:23;;;;;;;;;;;;;;;9.86;82.49;100292.22;5058909;28;19920;-54
2023/04/13 10:32:48;;;;;;;;;;;;;;;9.89;80.96;100295.72;5059328;28;20393;-55
2023/04/13 10:35:14;;;;;;;;;;;;;;;9.86;82.66;100289.63;5051517;28;19916;-53
2023/04/13 10:37:42;;;;;;;;;;;;;;;9.81;83.61;100299.81;5061891;28;20669;-58
2023/04/13 10:40:09;;;;;;;;;;;;;;;9.88;83.69;100303.38;5059365;28;19954;-55
2023/04/13 10:42:46;;;;;;;;;;;;;;;9.89;82.62;100312.84;5059738;28;20371;-54
2023/04/13 10:45:23;;;;;;;;;;;;;;;9.76;81.30;100311.66;5055671;28;20012;-55
2023/04/13 10:47:48;;;;;;;;;;;;;;;9.64;83.62;100326.78;5055549;28;19921;-55
2023/04/13 10:50:21;;;;;;;;;;;;;;;9.62;81.80;100324.19;5054678;28;19924;-54
2023/04/13 10:53:13;;;;;;;;;;;;;;;9.76;81.70;100329.66;5059121;28;19974;-54
2023/04/13 10:55:38;;;;;;;;;;;;;;;9.77;81.52;100327.94;5053360;28;19917;-47
2023/04/13 10:58:18;;;;;;;;;;;;;;;9.68;82.32;100332.03;5049911;28;20429;-47
2023/04/13 11:00:45;;;;;;;;;;;;;;;9.70;82.60;100339.78;5052250;28;20379;-49
2023/04/13 11:03:10;;;;;;;;;;;;;;;9.87;80.13;100340.16;5054505;28;19928;-48
2023/04/13 11:05:36;;;;;;;;;;;;;;;9.94;80.57;100352.31;5051600;28;19921;-45
2023/04/13 11:08:02;;;;;;;;;;;;;;;9.85;78.76;100346.97;5053626;28;20582;-48
2023/04/13 11:10:28;;;;;;;;;;;;;;;9.90;78.25;100356.53;5052219;28;20343;-47
2023/04/13 11:12:55;;;;;;;;;;;;;;;9.99;78.11;100360.97;5055290;28;19916;-49
2023/04/13 11:15:21;;;;;;;;;;;;;;;10.08;76.75;100365.47;5055584;28;19920;-47
2023/04/13 11:17:55;;;;;;;;;;;;;;;10.23;80.15;100360.69;5053464;28;19920;-45
2023/04/13 11:20:39;;;;;;;;;;;;;;;10.40;77.93;100366.19;5046640;28;19921;-48
2023/04/13 11:23:05;;;;;;;;;;;;;;;10.59;76.42;100360.56;5049274;28;19934;-49
2023/04/13 11:25:31;;;;;;;;;;;;;;;10.73;76.94;100363.41;5055505;28;20035;-47
2023/04/13 11:28:00;;;;;;;;;;;;;;;10.80;74.04;100369.53;5052137;28;19970;-48
2023/04/13 11:30:26;;;;;;;;;;;;;;;10.80;73.62;100364.38;5052046;28;20286;-45
2023/04/13 11:32:54;;;;;;;;;;;;;;;10.86;75.36;100362.84;5052427;28;20379;-47
2023/04/13 11:35:21;;;;;;;;;;;;;;;11.01;72.34;100357.09;5049250;28;19921;-47
2023/04/13 11:37:48;;;;;;;;;;;;;;;11.08;70.74;100364.06;5050484;28;20813;-46
2023/04/13 11:40:20;;;;;;;;;;;;;;;11.10;71.94;100372.72;5052012;28;20289;-48
2023/04/13 11:42:53;;;;;;;;;;;;;;;11.11;71.94;100359.00;5056949;28;19924;-45
2023/04/13 11:45:19;;;;;;;;;;;;;;;11.16;72.86;100366.78;5051403;28;19979;-54
2023/04/13 11:47:45;;;;;;;;;;;;;;;11.15;71.44;100368.47;5055276;28;19979;-54
2023/04/13 11:50:11;;;;;;;;;;;;;;;11.19;72.91;100364.28;5054378;28;20063;-55
2023/04/13 11:52:37;;;;;;;;;;;;;;;11.02;73.96;100371.69;5051585;28;19920;-55
2023/04/13 11:55:05;;;;;;;;;;;;;;;11.09;73.68;100362.38;5052041;28;19957;-56
2023/04/13 11:57:31;;;;;;;;;;;;;;;11.36;72.59;100360.28;5037204;28;20383;-55
2023/04/13 11:59:57;;;;;;;;;;;;;;;11.55;70.22;100369.16;5048120;28;19931;-54
2023/04/13 12:02:29;;;;;;;;;;;;;;;11.68;69.82;100370.22;5048794;28;19916;-55
2023/04/13 12:04:55;;;;;;;;;;;;;;;11.62;67.24;100373.56;5052558;28;19929;-53
2023/04/13 12:07:21;;;;;;;;;;;;;;;11.53;70.35;100371.72;5050639;28;19933;-53
2023/04/13 12:09:47;;;;;;;;;;;;;;;11.81;67.62;100378.19;5049191;28;19920;-54
2023/04/13 12:12:19;;;;;;;;;;;;;;;11.98;64.83;100375.88;5050783;28;19916;-58
2023/04/13 12:14:54;;;;;;;;;;;;;;;12.14;70.26;100381.25;5049800;28;19921;-55
2023/04/13 12:17:20;;;;;;;;;;;;;;;12.52;68.93;100379.19;5050612;28;19913;-55
2023/04/13 12:19:54;;;;;;;;;;;;;;;12.64;67.33;100381.91;5052202;28;20424;-54
2023/04/13 12:22:21;;;;;;;;;;;;;;;12.63;62.94;100376.75;5051144;28;20414;-56
2023/04/13 12:24:46;;;;;;;;;;;;;;;12.33;62.45;100383.25;5046586;28;19916;-55
2023/04/13 12:27:11;;;;;;;;;;;;;;;12.14;65.45;100382.13;5046736;28;19925;-55
2023/04/13 12:29:38;;;;;;;;;;;;;;;11.89;64.63;100385.16;5034299;28;19920;-56
2023/04/13 12:32:07;;;;;;;;;;;;;;;11.60;67.08;100388.16;5051684;28;19920;-56
2023/04/13 12:34:33;;;;;;;;;;;;;;;11.51;66.22;100383.69;5053209;28;19912;-55
2023/04/13 12:36:58;;;;;;;;;;;;;;;11.57;67.65;100394.94;5049465;28;20462;-53
2023/04/13 12:39:23;;;;;;;;;;;;;;;11.90;67.35;100397.22;5050240;28;19924;-54
2023/04/13 12:41:49;;;;;;;;;;;;;;;12.21;65.45;100394.25;5051210;28;19924;-53
2023/04/13 12:44:14;;;;;;;;;;;;;;;12.45;64.99;100392.84;5049351;28;19924;-53
2023/04/13 12:46:39;;;;;;;;;;;;;;;12.71;65.50;100406.06;5037677;28;19924;-47
2023/04/13 12:49:04;;;;;;;;;;;;;;;12.92;62.23;100400.28;5050185;28;19921;-53
2023/04/13 12:51:30;;;;;;;;;;;;;;;13.00;63.58;100406.41;5054624;28;20428;-47
2023/04/13 12:53:55;;;;;;;;;;;;;;;13.08;60.62;100409.91;5055456;28;20023;-46
2023/04/13 12:56:21;;;;;;;;;;;;;;;13.03;62.80;100416.75;5041438;28;19920;-47